sensor_id;sensor_type;location;lat;lon;timestamp;temperature;humidity
75821;DHT22;64454;51.984;9.838;2023-11-21T00:00:28;10.10;1.00
75821;DHT22;64454;51.984;9.838;2023-11-21T00:02:55;10.10;1.00
75821;DHT22;64454;51.984;9.838;2023-11-21T00:05:21;10.20;4.00
75821;DHT22;64454;51.984;9.838;2023-11-21T00:07:48;10.30;1.00
75821;DHT22;64454;51.984;9.838;2023-11-21T00:10:15;10.30;1.00
75821;DHT22;64454;51.984;9.838;2023-11-21T00:12:42;10.30;1.00
75821;DHT22;64454;51.984;9.838;2023-11-21T00:15:09;10.30;1.00
75821;DHT22;64454;51.984;9.838;2023-11-21T00:17:37;10.40;1.00
75821;DHT22;64454;51.984;9.838;2023-11-21T00:20:04;10.40;1.00
75821;DHT22;64454;51.984;9.838;2023-11-21T00:22:32;10.40;1.00
75821;DHT22;64454;51.984;9.838;2023-11-21T00:24:58;10.40;1.00
75821;DHT22;64454;51.984;9.838;2023-11-21T00:27:24;10.30;1.00
75821;DHT22;64454;51.984;9.838;2023-11-21T00:29:51;10.30;1.00
75821;DHT22;64454;51.984;9.838;2023-11-21T00:32:17;10.30;1.00
75821;DHT22;64454;51.984;9.838;2023-11-21T00:34:44;10.30;1.00
75821;DHT22;64454;51.984;9.838;2023-11-21T00:37:10;10.30;1.00
75821;DHT22;64454;51.984;9.838;2023-11-21T00:39:37;10.40;1.00
75821;DHT22;64454;51.984;9.838;2023-11-21T00:42:03;10.40;1.00
75821;DHT22;64454;51.984;9.838;2023-11-21T00:44:30;10.40;1.00
75821;DHT22;64454;51.984;9.838;2023-11-21T00:46:57;10.50;1.00
75821;DHT22;64454;51.984;9.838;2023-11-21T00:49:23;10.50;1.00
75821;DHT22;64454;51.984;9.838;2023-11-21T00:51:50;10.50;1.00
75821;DHT22;64454;51.984;9.838;2023-11-21T00:54:16;10.50;1.00
75821;DHT22;64454;51.984;9.838;2023-11-21T00:56:42;10.50;1.00
75821;DHT22;64454;51.984;9.838;2023-11-21T00:59:09;10.50;1.00
75821;DHT22;64454;51.984;9.838;2023-11-21T01:01:36;10.50;1.00
75821;DHT22;64454;51.984;9.838;2023-11-21T01:04:03;10.40;1.00
75821;DHT22;64454;51.984;9.838;2023-11-21T01:06:32;10.40;1.00
75821;DHT22;64454;51.984;9.838;2023-11-21T01:08:59;10.40;1.00
75821;DHT22;64454;51.984;9.838;2023-11-21T01:11:25;10.30;1.00
75821;DHT22;64454;51.984;9.838;2023-11-21T01:13:51;10.30;1.00
75821;DHT22;64454;51.984;9.838;2023-11-21T01:16:18;10.30;1.00
75821;DHT22;64454;51.984;9.838;2023-11-21T01:18:45;10.20;1.00
75821;DHT22;64454;51.984;9.838;2023-11-21T01:21:11;10.20;1.00
75821;DHT22;64454;51.984;9.838;2023-11-21T01:23:38;10.20;1.00
75821;DHT22;64454;51.984;9.838;2023-11-21T01:26:05;10.20;1.00
75821;DHT22;64454;51.984;9.838;2023-11-21T01:28:31;10.20;1.00
75821;DHT22;64454;51.984;9.838;2023-11-21T01:30:57;10.30;1.00
75821;DHT22;64454;51.984;9.838;2023-11-21T01:33:24;10.30;1.00
75821;DHT22;64454;51.984;9.838;2023-11-21T01:35:51;10.30;1.00
75821;DHT22;64454;51.984;9.838;2023-11-21T01:38:20;10.40;1.00
75821;DHT22;64454;51.984;9.838;2023-11-21T01:40:46;10.40;1.00
75821;DHT22;64454;51.984;9.838;2023-11-21T01:43:13;10.50;1.00
75821;DHT22;64454;51.984;9.838;2023-11-21T01:45:39;10.50;1.00
75821;DHT22;64454;51.984;9.838;2023-11-21T01:48:06;10.50;1.00
75821;DHT22;64454;51.984;9.838;2023-11-21T01:50:33;10.60;1.00
75821;DHT22;64454;51.984;9.838;2023-11-21T01:53:00;10.60;1.00
75821;DHT22;64454;51.984;9.838;2023-11-21T01:55:27;10.60;1.00
75821;DHT22;64454;51.984;9.838;2023-11-21T01:57:55;10.60;1.00
75821;DHT22;64454;51.984;9.838;2023-11-21T02:00:23;10.60;1.00
75821;DHT22;64454;51.984;9.838;2023-11-21T02:02:49;10.50;1.00
75821;DHT22;64454;51.984;9.838;2023-11-21T02:05:17;10.40;1.00
75821;DHT22;64454;51.984;9.838;2023-11-21T02:07:45;10.30;1.00
75821;DHT22;64454;51.984;9.838;2023-11-21T02:10:14;10.30;1.00
75821;DHT22;64454;51.984;9.838;2023-11-21T02:12:40;10.30;1.00
75821;DHT22;64454;51.984;9.838;2023-11-21T02:15:08;10.40;1.00
75821;DHT22;64454;51.984;9.838;2023-11-21T02:17:41;10.40;1.00
75821;DHT22;64454;51.984;9.838;2023-11-21T02:20:10;10.40;1.00
75821;DHT22;64454;51.984;9.838;2023-11-21T02:22:41;10.30;1.00
75821;DHT22;64454;51.984;9.838;2023-11-21T02:25:10;10.30;1.00
75821;DHT22;64454;51.984;9.838;2023-11-21T02:27:36;10.30;1.00
75821;DHT22;64454;51.984;9.838;2023-11-21T02:30:04;10.30;1.00
75821;DHT22;64454;51.984;9.838;2023-11-21T02:32:30;10.40;1.00
75821;DHT22;64454;51.984;9.838;2023-11-21T02:34:57;10.40;1.00
75821;DHT22;64454;51.984;9.838;2023-11-21T02:37:26;10.30;1.00
75821;DHT22;64454;51.984;9.838;2023-11-21T02:39:52;10.40;1.00
75821;DHT22;64454;51.984;9.838;2023-11-21T02:42:19;10.40;12.00
75821;DHT22;64454;51.984;9.838;2023-11-21T02:44:45;10.50;1.00
75821;DHT22;64454;51.984;9.838;2023-11-21T02:47:12;10.60;1.10
75821;DHT22;64454;51.984;9.838;2023-11-21T02:49:38;10.60;1.00
75821;DHT22;64454;51.984;9.838;2023-11-21T02:52:04;10.60;1.00
75821;DHT22;64454;51.984;9.838;2023-11-21T02:54:31;10.60;1.00
75821;DHT22;64454;51.984;9.838;2023-11-21T02:57:01;10.70;1.00
75821;DHT22;64454;51.984;9.838;2023-11-21T02:59:28;10.70;1.00
75821;DHT22;64454;51.984;9.838;2023-11-21T03:01:55;10.70;1.00
75821;DHT22;64454;51.984;9.838;2023-11-21T03:04:22;10.70;1.00
75821;DHT22;64454;51.984;9.838;2023-11-21T03:06:48;10.80;1.00
75821;DHT22;64454;51.984;9.838;2023-11-21T03:09:14;10.80;1.00
75821;DHT22;64454;51.984;9.838;2023-11-21T03:11:41;10.70;1.00
75821;DHT22;64454;51.984;9.838;2023-11-21T03:14:08;10.70;1.00
75821;DHT22;64454;51.984;9.838;2023-11-21T03:16:35;10.70;1.00
75821;DHT22;64454;51.984;9.838;2023-11-21T03:19:01;10.70;1.00
75821;DHT22;64454;51.984;9.838;2023-11-21T03:21:27;10.80;1.00
75821;DHT22;64454;51.984;9.838;2023-11-21T03:23:54;10.90;1.00
75821;DHT22;64454;51.984;9.838;2023-11-21T03:26:21;10.90;1.00
75821;DHT22;64454;51.984;9.838;2023-11-21T03:28:47;10.90;1.00
75821;DHT22;64454;51.984;9.838;2023-11-21T03:31:13;10.90;1.00
75821;DHT22;64454;51.984;9.838;2023-11-21T03:33:42;11.00;1.00
75821;DHT22;64454;51.984;9.838;2023-11-21T03:36:09;11.00;1.00
75821;DHT22;64454;51.984;9.838;2023-11-21T03:38:36;11.00;1.00
75821;DHT22;64454;51.984;9.838;2023-11-21T03:41:02;11.10;1.00
75821;DHT22;64454;51.984;9.838;2023-11-21T03:43:28;11.10;1.00
75821;DHT22;64454;51.984;9.838;2023-11-21T03:45:55;11.00;1.00
75821;DHT22;64454;51.984;9.838;2023-11-21T03:48:21;11.00;1.00
75821;DHT22;64454;51.984;9.838;2023-11-21T03:50:47;11.00;1.00
75821;DHT22;64454;51.984;9.838;2023-11-21T03:53:14;10.90;1.00
75821;DHT22;64454;51.984;9.838;2023-11-21T03:55:40;10.90;1.00
75821;DHT22;64454;51.984;9.838;2023-11-21T03:58:06;10.90;1.00
75821;DHT22;64454;51.984;9.838;2023-11-21T04:00:32;10.90;1.00
75821;DHT22;64454;51.984;9.838;2023-11-21T04:02:58;10.90;1.00
75821;DHT22;64454;51.984;9.838;2023-11-21T04:05:25;11.00;1.00
75821;DHT22;64454;51.984;9.838;2023-11-21T04:07:52;11.00;1.00
75821;DHT22;64454;51.984;9.838;2023-11-21T04:10:18;11.00;1.00
75821;DHT22;64454;51.984;9.838;2023-11-21T04:12:44;11.10;1.00
75821;DHT22;64454;51.984;9.838;2023-11-21T04:15:11;11.00;1.00
75821;DHT22;64454;51.984;9.838;2023-11-21T04:17:38;11.10;1.00
75821;DHT22;64454;51.984;9.838;2023-11-21T04:20:06;11.00;1.00
75821;DHT22;64454;51.984;9.838;2023-11-21T04:22:36;11.10;1.00
75821;DHT22;64454;51.984;9.838;2023-11-21T04:25:07;11.10;1.00
75821;DHT22;64454;51.984;9.838;2023-11-21T04:27:34;11.00;1.00
75821;DHT22;64454;51.984;9.838;2023-11-21T04:30:00;11.00;1.00
75821;DHT22;64454;51.984;9.838;2023-11-21T04:32:26;11.10;1.00
75821;DHT22;64454;51.984;9.838;2023-11-21T04:34:52;11.00;1.00
75821;DHT22;64454;51.984;9.838;2023-11-21T04:37:18;11.10;1.00
75821;DHT22;64454;51.984;9.838;2023-11-21T04:39:45;11.10;1.00
75821;DHT22;64454;51.984;9.838;2023-11-21T04:42:11;11.10;1.00
75821;DHT22;64454;51.984;9.838;2023-11-21T04:44:38;11.10;1.00
75821;DHT22;64454;51.984;9.838;2023-11-21T04:47:06;11.10;1.00
75821;DHT22;64454;51.984;9.838;2023-11-21T04:49:33;11.10;1.00
75821;DHT22;64454;51.984;9.838;2023-11-21T04:51:59;11.10;1.00
75821;DHT22;64454;51.984;9.838;2023-11-21T04:54:26;11.10;1.00
75821;DHT22;64454;51.984;9.838;2023-11-21T04:56:53;11.10;1.00
75821;DHT22;64454;51.984;9.838;2023-11-21T04:59:20;11.10;1.00
75821;DHT22;64454;51.984;9.838;2023-11-21T05:01:46;11.10;1.00
75821;DHT22;64454;51.984;9.838;2023-11-21T05:04:12;11.10;1.00
75821;DHT22;64454;51.984;9.838;2023-11-21T05:06:40;11.10;1.00
75821;DHT22;64454;51.984;9.838;2023-11-21T05:09:06;11.20;1.00
75821;DHT22;64454;51.984;9.838;2023-11-21T05:11:37;11.20;1.00
75821;DHT22;64454;51.984;9.838;2023-11-21T05:14:04;11.20;1.00
75821;DHT22;64454;51.984;9.838;2023-11-21T05:16:31;11.20;1.00
75821;DHT22;64454;51.984;9.838;2023-11-21T05:18:59;11.20;1.00
75821;DHT22;64454;51.984;9.838;2023-11-21T05:21:26;11.20;1.00
75821;DHT22;64454;51.984;9.838;2023-11-21T05:23:53;11.20;1.00
75821;DHT22;64454;51.984;9.838;2023-11-21T05:26:19;11.10;1.00
75821;DHT22;64454;51.984;9.838;2023-11-21T05:28:46;11.00;1.00
75821;DHT22;64454;51.984;9.838;2023-11-21T05:31:13;11.00;1.00
75821;DHT22;64454;51.984;9.838;2023-11-21T05:33:40;11.00;1.00
75821;DHT22;64454;51.984;9.838;2023-11-21T05:36:07;11.00;1.00
75821;DHT22;64454;51.984;9.838;2023-11-21T05:38:35;11.00;1.00
75821;DHT22;64454;51.984;9.838;2023-11-21T05:41:01;11.10;1.00
75821;DHT22;64454;51.984;9.838;2023-11-21T05:43:29;11.10;1.00
75821;DHT22;64454;51.984;9.838;2023-11-21T05:45:56;11.20;1.00
75821;DHT22;64454;51.984;9.838;2023-11-21T05:48:22;11.20;1.00
75821;DHT22;64454;51.984;9.838;2023-11-21T05:50:49;11.30;1.00
75821;DHT22;64454;51.984;9.838;2023-11-21T05:53:15;11.30;1.00
75821;DHT22;64454;51.984;9.838;2023-11-21T05:55:42;11.30;1.00
75821;DHT22;64454;51.984;9.838;2023-11-21T05:58:08;11.30;1.00
75821;DHT22;64454;51.984;9.838;2023-11-21T06:00:34;11.40;1.00
75821;DHT22;64454;51.984;9.838;2023-11-21T06:03:03;11.40;1.00
75821;DHT22;64454;51.984;9.838;2023-11-21T06:05:33;11.40;1.00
75821;DHT22;64454;51.984;9.838;2023-11-21T06:08:00;11.40;1.00
75821;DHT22;64454;51.984;9.838;2023-11-21T06:10:27;11.40;1.00
75821;DHT22;64454;51.984;9.838;2023-11-21T06:12:53;11.40;1.00
75821;DHT22;64454;51.984;9.838;2023-11-21T06:15:20;11.40;1.00
75821;DHT22;64454;51.984;9.838;2023-11-21T06:17:48;11.40;1.00
75821;DHT22;64454;51.984;9.838;2023-11-21T06:20:18;11.40;1.00
75821;DHT22;64454;51.984;9.838;2023-11-21T06:22:48;11.40;1.00
75821;DHT22;64454;51.984;9.838;2023-11-21T06:25:16;11.40;1.00
75821;DHT22;64454;51.984;9.838;2023-11-21T06:27:44;11.40;1.00
75821;DHT22;64454;51.984;9.838;2023-11-21T06:30:12;11.40;1.00
75821;DHT22;64454;51.984;9.838;2023-11-21T06:32:41;11.40;1.00
75821;DHT22;64454;51.984;9.838;2023-11-21T06:35:11;11.40;1.00
75821;DHT22;64454;51.984;9.838;2023-11-21T06:37:38;11.40;1.00
75821;DHT22;64454;51.984;9.838;2023-11-21T06:40:06;11.30;1.00
75821;DHT22;64454;51.984;9.838;2023-11-21T06:42:34;11.30;1.00
75821;DHT22;64454;51.984;9.838;2023-11-21T06:45:00;11.30;1.00
75821;DHT22;64454;51.984;9.838;2023-11-21T06:47:29;11.20;1.00
75821;DHT22;64454;51.984;9.838;2023-11-21T06:49:56;11.20;1.00
75821;DHT22;64454;51.984;9.838;2023-11-21T06:52:22;11.20;1.00
75821;DHT22;64454;51.984;9.838;2023-11-21T06:54:51;11.20;1.00
75821;DHT22;64454;51.984;9.838;2023-11-21T06:57:17;11.10;1.00
75821;DHT22;64454;51.984;9.838;2023-11-21T06:59:44;11.10;1.00
75821;DHT22;64454;51.984;9.838;2023-11-21T07:02:10;11.00;8.60
75821;DHT22;64454;51.984;9.838;2023-11-21T07:04:37;11.00;13.00
75821;DHT22;64454;51.984;9.838;2023-11-21T07:07:03;11.00;17.70
75821;DHT22;64454;51.984;9.838;2023-11-21T07:09:32;11.00;24.70
75821;DHT22;64454;51.984;9.838;2023-11-21T07:11:58;11.10;25.20
75821;DHT22;64454;51.984;9.838;2023-11-21T07:14:25;11.10;30.70
75821;DHT22;64454;51.984;9.838;2023-11-21T07:16:52;11.10;32.10
75821;DHT22;64454;51.984;9.838;2023-11-21T07:19:18;11.20;33.10
75821;DHT22;64454;51.984;9.838;2023-11-21T07:21:45;11.20;30.60
75821;DHT22;64454;51.984;9.838;2023-11-21T07:24:11;11.30;27.90
75821;DHT22;64454;51.984;9.838;2023-11-21T07:26:37;11.30;26.10
75821;DHT22;64454;51.984;9.838;2023-11-21T07:29:04;11.30;19.40
75821;DHT22;64454;51.984;9.838;2023-11-21T07:31:31;11.40;9.40
75821;DHT22;64454;51.984;9.838;2023-11-21T07:34:00;11.40;7.60
75821;DHT22;64454;51.984;9.838;2023-11-21T07:36:27;11.40;6.50
75821;DHT22;64454;51.984;9.838;2023-11-21T07:38:53;11.30;9.10
75821;DHT22;64454;51.984;9.838;2023-11-21T07:41:19;11.30;10.10
75821;DHT22;64454;51.984;9.838;2023-11-21T07:43:46;11.40;9.00
75821;DHT22;64454;51.984;9.838;2023-11-21T07:46:13;11.40;7.80
75821;DHT22;64454;51.984;9.838;2023-11-21T07:48:39;11.30;7.30
75821;DHT22;64454;51.984;9.838;2023-11-21T07:51:07;11.40;10.40
75821;DHT22;64454;51.984;9.838;2023-11-21T07:53:35;11.40;13.70
75821;DHT22;64454;51.984;9.838;2023-11-21T07:56:03;11.40;11.00
75821;DHT22;64454;51.984;9.838;2023-11-21T07:58:30;11.40;11.70
75821;DHT22;64454;51.984;9.838;2023-11-21T08:00:59;11.40;13.40
75821;DHT22;64454;51.984;9.838;2023-11-21T08:03:25;11.40;15.40
75821;DHT22;64454;51.984;9.838;2023-11-21T08:05:52;11.40;15.60
75821;DHT22;64454;51.984;9.838;2023-11-21T08:08:19;11.50;14.50
75821;DHT22;64454;51.984;9.838;2023-11-21T08:10:45;11.50;10.70
75821;DHT22;64454;51.984;9.838;2023-11-21T08:13:21;11.60;9.50
75821;DHT22;64454;51.984;9.838;2023-11-21T08:15:48;11.60;10.10
75821;DHT22;64454;51.984;9.838;2023-11-21T08:18:14;11.60;11.40
75821;DHT22;64454;51.984;9.838;2023-11-21T08:20:42;11.60;11.20
75821;DHT22;64454;51.984;9.838;2023-11-21T08:23:08;11.60;25.60
75821;DHT22;64454;51.984;9.838;2023-11-21T08:25:35;11.60;16.90
75821;DHT22;64454;51.984;9.838;2023-11-21T08:28:01;11.60;15.70
75821;DHT22;64454;51.984;9.838;2023-11-21T08:30:27;11.60;15.40
75821;DHT22;64454;51.984;9.838;2023-11-21T08:32:55;11.60;17.80
75821;DHT22;64454;51.984;9.838;2023-11-21T08:35:23;11.60;17.50
75821;DHT22;64454;51.984;9.838;2023-11-21T08:37:51;11.60;20.10
75821;DHT22;64454;51.984;9.838;2023-11-21T08:40:18;11.60;22.80
75821;DHT22;64454;51.984;9.838;2023-11-21T08:42:45;11.60;23.10
75821;DHT22;64454;51.984;9.838;2023-11-21T08:45:11;11.60;25.80
75821;DHT22;64454;51.984;9.838;2023-11-21T08:47:38;11.60;29.30
75821;DHT22;64454;51.984;9.838;2023-11-21T08:50:05;11.60;32.80
75821;DHT22;64454;51.984;9.838;2023-11-21T08:52:33;11.60;35.40
75821;DHT22;64454;51.984;9.838;2023-11-21T08:54:59;11.60;37.60
75821;DHT22;64454;51.984;9.838;2023-11-21T08:57:28;11.60;39.00
75821;DHT22;64454;51.984;9.838;2023-11-21T08:59:55;11.60;39.80
75821;DHT22;64454;51.984;9.838;2023-11-21T09:02:22;11.60;39.90
75821;DHT22;64454;51.984;9.838;2023-11-21T09:04:50;11.60;37.60
75821;DHT22;64454;51.984;9.838;2023-11-21T09:07:18;11.50;26.10
75821;DHT22;64454;51.984;9.838;2023-11-21T09:09:44;11.40;14.30
75821;DHT22;64454;51.984;9.838;2023-11-21T09:12:10;11.30;16.50
75821;DHT22;64454;51.984;9.838;2023-11-21T09:14:37;11.20;13.70
75821;DHT22;64454;51.984;9.838;2023-11-21T09:17:05;11.10;14.50
75821;DHT22;64454;51.984;9.838;2023-11-21T09:19:36;11.10;21.40
75821;DHT22;64454;51.984;9.838;2023-11-21T09:22:03;11.10;22.60
75821;DHT22;64454;51.984;9.838;2023-11-21T09:24:30;11.10;15.90
75821;DHT22;64454;51.984;9.838;2023-11-21T09:26:56;11.10;7.20
75821;DHT22;64454;51.984;9.838;2023-11-21T09:29:23;10.90;4.70
75821;DHT22;64454;51.984;9.838;2023-11-21T09:31:49;10.80;6.40
75821;DHT22;64454;51.984;9.838;2023-11-21T09:34:17;10.70;8.70
75821;DHT22;64454;51.984;9.838;2023-11-21T09:36:45;10.70;16.30
75821;DHT22;64454;51.984;9.838;2023-11-21T09:39:12;10.70;20.00
75821;DHT22;64454;51.984;9.838;2023-11-21T09:41:43;10.60;4.50
75821;DHT22;64454;51.984;9.838;2023-11-21T09:44:14;10.50;7.00
75821;DHT22;64454;51.984;9.838;2023-11-21T09:46:44;10.40;9.70
75821;DHT22;64454;51.984;9.838;2023-11-21T09:49:14;10.40;16.70
75821;DHT22;64454;51.984;9.838;2023-11-21T09:51:46;10.40;12.40
75821;DHT22;64454;51.984;9.838;2023-11-21T09:54:15;10.50;12.30
75821;DHT22;64454;51.984;9.838;2023-11-21T09:56:43;10.50;19.00
75821;DHT22;64454;51.984;9.838;2023-11-21T09:59:13;10.50;8.50
75821;DHT22;64454;51.984;9.838;2023-11-21T10:01:42;10.40;1.00
75821;DHT22;64454;51.984;9.838;2023-11-21T10:04:08;10.30;3.10
75821;DHT22;64454;51.984;9.838;2023-11-21T10:06:38;10.30;2.50
75821;DHT22;64454;51.984;9.838;2023-11-21T10:09:09;10.30;13.60
75821;DHT22;64454;51.984;9.838;2023-11-21T10:11:40;10.30;1.60
75821;DHT22;64454;51.984;9.838;2023-11-21T10:14:08;10.30;24.70
75821;DHT22;64454;51.984;9.838;2023-11-21T10:16:38;10.40;26.20
75821;DHT22;64454;51.984;9.838;2023-11-21T10:19:05;10.50;24.10
75821;DHT22;64454;51.984;9.838;2023-11-21T10:21:32;10.60;24.60
75821;DHT22;64454;51.984;9.838;2023-11-21T10:23:58;10.60;16.70
75821;DHT22;64454;51.984;9.838;2023-11-21T10:26:26;10.70;16.80
75821;DHT22;64454;51.984;9.838;2023-11-21T10:28:57;10.70;15.70
75821;DHT22;64454;51.984;9.838;2023-11-21T10:31:23;10.90;9.30
75821;DHT22;64454;51.984;9.838;2023-11-21T10:33:49;10.80;1.00
75821;DHT22;64454;51.984;9.838;2023-11-21T10:36:25;10.50;1.00
75821;DHT22;64454;51.984;9.838;2023-11-21T10:38:52;10.30;1.00
75821;DHT22;64454;51.984;9.838;2023-11-21T10:41:19;10.30;1.00
75821;DHT22;64454;51.984;9.838;2023-11-21T10:43:46;10.30;1.00
75821;DHT22;64454;51.984;9.838;2023-11-21T10:46:13;10.40;1.00
75821;DHT22;64454;51.984;9.838;2023-11-21T10:48:41;10.40;1.00
75821;DHT22;64454;51.984;9.838;2023-11-21T10:51:08;10.40;1.00
75821;DHT22;64454;51.984;9.838;2023-11-21T10:53:38;10.30;1.00
75821;DHT22;64454;51.984;9.838;2023-11-21T10:56:08;10.30;1.00
75821;DHT22;64454;51.984;9.838;2023-11-21T10:58:43;10.40;1.00
75821;DHT22;64454;51.984;9.838;2023-11-21T11:01:10;10.30;1.00
75821;DHT22;64454;51.984;9.838;2023-11-21T11:03:37;10.40;1.00
75821;DHT22;64454;51.984;9.838;2023-11-21T11:06:05;10.40;1.00
75821;DHT22;64454;51.984;9.838;2023-11-21T11:08:36;10.40;1.00
75821;DHT22;64454;51.984;9.838;2023-11-21T11:11:04;10.50;1.00
75821;DHT22;64454;51.984;9.838;2023-11-21T11:13:31;10.60;1.00
75821;DHT22;64454;51.984;9.838;2023-11-21T11:15:58;10.80;1.00
75821;DHT22;64454;51.984;9.838;2023-11-21T11:18:27;10.80;1.00
75821;DHT22;64454;51.984;9.838;2023-11-21T11:21:00;10.60;1.00
75821;DHT22;64454;51.984;9.838;2023-11-21T11:23:45;10.60;1.00
75821;DHT22;64454;51.984;9.838;2023-11-21T11:26:30;10.60;1.00
75821;DHT22;64454;51.984;9.838;2023-11-21T11:29:09;10.50;1.00
75821;DHT22;64454;51.984;9.838;2023-11-21T11:31:51;10.50;1.00
75821;DHT22;64454;51.984;9.838;2023-11-21T11:34:29;10.50;1.00
75821;DHT22;64454;51.984;9.838;2023-11-21T11:37:00;10.50;1.00
75821;DHT22;64454;51.984;9.838;2023-11-21T11:39:29;10.50;1.00
75821;DHT22;64454;51.984;9.838;2023-11-21T11:41:57;10.40;1.00
75821;DHT22;64454;51.984;9.838;2023-11-21T11:44:54;10.40;1.00
75821;DHT22;64454;51.984;9.838;2023-11-21T11:47:23;10.40;1.00
75821;DHT22;64454;51.984;9.838;2023-11-21T11:50:14;10.50;1.00
75821;DHT22;64454;51.984;9.838;2023-11-21T11:52:43;10.50;1.00
75821;DHT22;64454;51.984;9.838;2023-11-21T11:55:16;10.60;1.00
75821;DHT22;64454;51.984;9.838;2023-11-21T11:57:44;10.60;1.00
75821;DHT22;64454;51.984;9.838;2023-11-21T12:00:15;10.70;1.00
75821;DHT22;64454;51.984;9.838;2023-11-21T12:02:45;10.70;1.00
75821;DHT22;64454;51.984;9.838;2023-11-21T12:05:14;10.80;1.00
75821;DHT22;64454;51.984;9.838;2023-11-21T12:07:50;10.80;1.00
75821;DHT22;64454;51.984;9.838;2023-11-21T12:10:20;10.80;1.00
75821;DHT22;64454;51.984;9.838;2023-11-21T12:12:51;10.70;1.00
75821;DHT22;64454;51.984;9.838;2023-11-21T12:15:19;10.60;1.00
75821;DHT22;64454;51.984;9.838;2023-11-21T12:17:47;10.60;1.00
75821;DHT22;64454;51.984;9.838;2023-11-21T12:20:18;10.50;1.00
75821;DHT22;64454;51.984;9.838;2023-11-21T12:22:47;10.50;1.00
75821;DHT22;64454;51.984;9.838;2023-11-21T12:25:14;10.50;1.00
75821;DHT22;64454;51.984;9.838;2023-11-21T12:27:44;10.60;1.00
75821;DHT22;64454;51.984;9.838;2023-11-21T12:30:12;10.60;1.00
75821;DHT22;64454;51.984;9.838;2023-11-21T12:32:41;10.70;1.00
75821;DHT22;64454;51.984;9.838;2023-11-21T12:35:09;10.80;1.00
75821;DHT22;64454;51.984;9.838;2023-11-21T12:37:37;10.70;1.00
75821;DHT22;64454;51.984;9.838;2023-11-21T12:40:06;10.80;1.00
75821;DHT22;64454;51.984;9.838;2023-11-21T12:42:33;11.00;1.00
75821;DHT22;64454;51.984;9.838;2023-11-21T12:45:09;11.00;1.00
75821;DHT22;64454;51.984;9.838;2023-11-21T12:47:41;11.10;1.00
75821;DHT22;64454;51.984;9.838;2023-11-21T12:50:08;11.20;1.00
75821;DHT22;64454;51.984;9.838;2023-11-21T12:52:41;11.20;1.00
75821;DHT22;64454;51.984;9.838;2023-11-21T12:55:14;11.20;1.00
75821;DHT22;64454;51.984;9.838;2023-11-21T12:57:45;11.30;1.00
75821;DHT22;64454;51.984;9.838;2023-11-21T13:00:13;11.20;1.00
75821;DHT22;64454;51.984;9.838;2023-11-21T13:02:51;11.00;1.00
75821;DHT22;64454;51.984;9.838;2023-11-21T13:05:24;10.90;1.00
75821;DHT22;64454;51.984;9.838;2023-11-21T13:07:51;10.80;1.00
75821;DHT22;64454;51.984;9.838;2023-11-21T13:10:21;10.80;1.00
75821;DHT22;64454;51.984;9.838;2023-11-21T13:12:52;10.80;1.00
75821;DHT22;64454;51.984;9.838;2023-11-21T13:15:20;10.60;1.00
75821;DHT22;64454;51.984;9.838;2023-11-21T13:17:46;10.50;1.00
75821;DHT22;64454;51.984;9.838;2023-11-21T13:20:13;10.40;1.00
75821;DHT22;64454;51.984;9.838;2023-11-21T13:22:46;10.50;1.00
75821;DHT22;64454;51.984;9.838;2023-11-21T13:25:15;10.50;1.00
75821;DHT22;64454;51.984;9.838;2023-11-21T13:27:43;10.50;1.00
75821;DHT22;64454;51.984;9.838;2023-11-21T13:30:12;10.50;1.00
75821;DHT22;64454;51.984;9.838;2023-11-21T13:32:41;10.50;1.00
75821;DHT22;64454;51.984;9.838;2023-11-21T13:35:08;10.50;1.00
75821;DHT22;64454;51.984;9.838;2023-11-21T13:37:40;10.60;1.00
75821;DHT22;64454;51.984;9.838;2023-11-21T13:40:08;10.60;1.00
75821;DHT22;64454;51.984;9.838;2023-11-21T13:42:40;10.70;1.00
75821;DHT22;64454;51.984;9.838;2023-11-21T13:45:09;10.60;1.00
75821;DHT22;64454;51.984;9.838;2023-11-21T13:47:35;10.50;1.00
75821;DHT22;64454;51.984;9.838;2023-11-21T13:50:04;10.40;1.00
75821;DHT22;64454;51.984;9.838;2023-11-21T13:52:39;10.50;1.00
75821;DHT22;64454;51.984;9.838;2023-11-21T13:55:06;10.50;1.00
75821;DHT22;64454;51.984;9.838;2023-11-21T13:57:40;10.40;1.00
75821;DHT22;64454;51.984;9.838;2023-11-21T14:00:11;10.40;1.00
75821;DHT22;64454;51.984;9.838;2023-11-21T14:02:58;10.50;1.00
75821;DHT22;64454;51.984;9.838;2023-11-21T14:05:26;10.60;1.00
75821;DHT22;64454;51.984;9.838;2023-11-21T14:07:55;10.60;1.00
75821;DHT22;64454;51.984;9.838;2023-11-21T14:10:25;10.50;1.00
75821;DHT22;64454;51.984;9.838;2023-11-21T14:12:52;10.50;1.00
75821;DHT22;64454;51.984;9.838;2023-11-21T14:15:18;10.50;1.00
75821;DHT22;64454;51.984;9.838;2023-11-21T14:17:44;10.50;1.00
75821;DHT22;64454;51.984;9.838;2023-11-21T14:20:11;10.60;1.00
75821;DHT22;64454;51.984;9.838;2023-11-21T14:22:41;10.50;1.00
75821;DHT22;64454;51.984;9.838;2023-11-21T14:25:08;10.40;1.00
75821;DHT22;64454;51.984;9.838;2023-11-21T14:27:37;10.50;1.00
75821;DHT22;64454;51.984;9.838;2023-11-21T14:30:04;10.30;1.00
75821;DHT22;64454;51.984;9.838;2023-11-21T14:32:32;10.20;1.00
75821;DHT22;64454;51.984;9.838;2023-11-21T14:34:58;10.10;1.00
75821;DHT22;64454;51.984;9.838;2023-11-21T14:37:24;10.10;1.00
75821;DHT22;64454;51.984;9.838;2023-11-21T14:39:50;10.00;1.00
75821;DHT22;64454;51.984;9.838;2023-11-21T14:42:17;10.00;1.00
75821;DHT22;64454;51.984;9.838;2023-11-21T14:44:50;10.10;1.00
75821;DHT22;64454;51.984;9.838;2023-11-21T14:47:18;10.10;1.00
75821;DHT22;64454;51.984;9.838;2023-11-21T14:49:50;10.10;1.00
75821;DHT22;64454;51.984;9.838;2023-11-21T14:52:18;10.10;1.00
75821;DHT22;64454;51.984;9.838;2023-11-21T14:54:58;10.20;1.00
75821;DHT22;64454;51.984;9.838;2023-11-21T14:57:46;10.20;1.00
75821;DHT22;64454;51.984;9.838;2023-11-21T15:00:16;10.20;1.00
75821;DHT22;64454;51.984;9.838;2023-11-21T15:03:04;10.20;1.00
75821;DHT22;64454;51.984;9.838;2023-11-21T15:05:32;10.10;1.00
75821;DHT22;64454;51.984;9.838;2023-11-21T15:08:00;10.00;1.00
75821;DHT22;64454;51.984;9.838;2023-11-21T15:10:42;9.90;1.00
75821;DHT22;64454;51.984;9.838;2023-11-21T15:13:12;9.80;1.00
75821;DHT22;64454;51.984;9.838;2023-11-21T15:15:39;9.80;1.00
75821;DHT22;64454;51.984;9.838;2023-11-21T15:18:06;9.90;1.00
75821;DHT22;64454;51.984;9.838;2023-11-21T15:20:32;9.80;1.00
75821;DHT22;64454;51.984;9.838;2023-11-21T15:22:58;9.80;1.00
75821;DHT22;64454;51.984;9.838;2023-11-21T15:25:25;9.70;1.00
75821;DHT22;64454;51.984;9.838;2023-11-21T15:27:52;9.70;1.00
75821;DHT22;64454;51.984;9.838;2023-11-21T15:30:20;9.70;1.00
75821;DHT22;64454;51.984;9.838;2023-11-21T15:32:50;9.70;1.00
75821;DHT22;64454;51.984;9.838;2023-11-21T15:35:17;9.60;1.00
75821;DHT22;64454;51.984;9.838;2023-11-21T15:37:43;9.60;1.00
75821;DHT22;64454;51.984;9.838;2023-11-21T15:40:11;9.70;1.00
75821;DHT22;64454;51.984;9.838;2023-11-21T15:42:39;9.60;1.00
75821;DHT22;64454;51.984;9.838;2023-11-21T15:45:07;9.50;1.00
75821;DHT22;64454;51.984;9.838;2023-11-21T15:47:34;9.40;1.00
75821;DHT22;64454;51.984;9.838;2023-11-21T15:50:00;9.50;1.00